Time;durP1;ratioP1;P1;durP2;ratioP2;P2;SDS_P1;SDS_P2;PMS_P1;PMS_P2;Temp;Humidity;BMP_temperature;BMP_pressure;BME280_temperature;BME280_humidity;BME280_pressure;Samples;Min_cycle;Max_cycle;Signal;HPM_P1;HPM_P2
2021/04/30 00:00:37;;;;;;;11.15;5.20;;;16.90;52.80;;;;;;5136474;27;20038;-77
2021/04/30 00:03:04;;;;;;;7.03;4.53;;;16.90;53.20;;;;;;5136315;27;20023;-76
2021/04/30 00:05:29;;;;;;;10.07;4.53;;;16.90;53.20;;;;;;5136256;27;20122;-76
2021/04/30 00:07:56;;;;;;;7.07;5.13;;;16.90;53.70;;;;;;5136242;27;20539;-75
2021/04/30 00:10:23;;;;;;;6.68;4.82;;;16.80;53.60;;;;;;5136246;27;20015;-74
2021/04/30 00:12:49;;;;;;;7.63;5.13;;;16.80;53.50;;;;;;5134885;27;20024;-73
2021/04/30 00:15:15;;;;;;;8.43;4.60;;;16.80;53.60;;;;;;5135281;27;20373;-72
2021/04/30 00:17:41;;;;;;;7.47;4.82;;;16.70;53.80;;;;;;5135986;27;20403;-72
2021/04/30 00:20:08;;;;;;;7.10;4.30;;;16.70;54.00;;;;;;5135649;27;20027;-71
2021/04/30 00:22:34;;;;;;;6.50;4.38;;;16.70;54.30;;;;;;5135562;27;20015;-70
2021/04/30 00:25:00;;;;;;;7.60;4.85;;;16.70;54.50;;;;;;5135859;27;20391;-71
2021/04/30 00:27:26;;;;;;;7.95;4.82;;;16.60;54.50;;;;;;5136152;27;20019;-70
2021/04/30 00:29:51;;;;;;;6.95;4.85;;;16.60;54.80;;;;;;5127464;27;20028;-70
2021/04/30 00:32:17;;;;;;;7.38;4.72;;;16.60;54.90;;;;;;5115215;28;20150;-70
2021/04/30 00:34:43;;;;;;;5.35;4.75;;;16.50;55.00;;;;;;5131448;27;20031;-70
2021/04/30 00:37:10;;;;;;;10.35;5.50;;;16.50;55.20;;;;;;5135202;27;20015;-70
2021/04/30 00:39:36;;;;;;;6.78;4.63;;;16.50;55.30;;;;;;5135605;27;20026;-70
2021/04/30 00:42:03;;;;;;;7.07;5.07;;;16.50;55.40;;;;;;5129638;27;20015;-70
2021/04/30 00:44:29;;;;;;;8.43;5.57;;;16.50;55.60;;;;;;5114824;28;20020;-69
2021/04/30 00:46:55;;;;;;;9.30;5.05;;;16.50;55.80;;;;;;5130221;27;20380;-69
2021/04/30 00:49:21;;;;;;;6.25;4.38;;;16.40;55.70;;;;;;5134139;27;20019;-69
2021/04/30 00:51:47;;;;;;;8.00;5.25;;;16.50;55.70;;;;;;5133926;27;20039;-69
2021/04/30 00:54:13;;;;;;;9.55;5.07;;;16.50;56.00;;;;;;5135497;27;20043;-69
2021/04/30 00:56:39;;;;;;;8.48;5.68;;;16.40;55.90;;;;;;5135273;27;20080;-69
2021/04/30 00:59:05;;;;;;;7.35;5.18;;;16.40;56.00;;;;;;5135242;27;20110;-69
2021/04/30 01:01:32;;;;;;;11.23;5.72;;;16.40;56.20;;;;;;5135198;27;20050;-71
2021/04/30 01:03:58;;;;;;;9.10;4.97;;;16.40;56.30;;;;;;5133824;27;20027;-69
2021/04/30 01:06:24;;;;;;;7.07;5.20;;;16.30;56.40;;;;;;5135022;27;20079;-69
2021/04/30 01:08:49;;;;;;;9.30;5.70;;;16.30;56.80;;;;;;5134826;27;20044;-71
2021/04/30 01:11:16;;;;;;;8.48;5.28;;;16.30;56.70;;;;;;5135022;27;20023;-69
2021/04/30 01:13:41;;;;;;;8.38;4.18;;;16.30;56.60;;;;;;5134912;27;20029;-70
2021/04/30 01:16:07;;;;;;;7.88;5.13;;;16.30;56.50;;;;;;5134528;27;20023;-69
2021/04/30 01:18:44;;;;;;;5.70;4.63;;;16.30;56.40;;;;;;5134888;27;20089;-69
2021/04/30 01:21:11;;;;;;;9.75;5.13;;;16.20;56.40;;;;;;5133530;27;20512;-69
2021/04/30 01:23:48;;;;;;;13.85;5.72;;;16.20;56.40;;;;;;5134720;27;20043;-69
2021/04/30 01:26:15;;;;;;;8.98;5.30;;;16.20;56.70;;;;;;5134652;27;20473;-69
2021/04/30 01:28:41;;;;;;;9.18;5.22;;;16.20;56.50;;;;;;5133609;27;20055;-69
2021/04/30 01:31:07;;;;;;;9.25;5.47;;;16.20;56.60;;;;;;5134595;27;20054;-70
2021/04/30 01:33:33;;;;;;;7.60;5.10;;;16.10;56.60;;;;;;5134575;27;20499;-69
2021/04/30 01:35:59;;;;;;;10.65;5.32;;;16.20;56.70;;;;;;5134470;27;20384;-69
2021/04/30 01:38:25;;;;;;;8.18;4.70;;;16.10;56.80;;;;;;5134544;27;20024;-69
2021/04/30 01:40:51;;;;;;;10.73;5.25;;;16.10;56.60;;;;;;5133181;27;20079;-70
2021/04/30 01:43:19;;;;;;;9.88;5.68;;;16.10;56.90;;;;;;5117826;27;20032;-70
2021/04/30 01:45:52;;;;;;;14.75;5.95;;;16.10;57.20;;;;;;5118312;27;20025;-69
2021/04/30 01:48:24;;;;;;;8.10;5.22;;;16.10;57.00;;;;;;5132038;27;20108;-69
2021/04/30 01:50:50;;;;;;;8.80;5.07;;;16.10;56.80;;;;;;5134202;27;20026;-70
2021/04/30 01:53:27;;;;;;;8.80;5.80;;;16.00;57.10;;;;;;5133989;27;20071;-70
2021/04/30 01:55:54;;;;;;;14.88;5.80;;;16.00;57.50;;;;;;5134095;27;20020;-70
2021/04/30 01:58:21;;;;;;;7.10;4.80;;;16.00;57.40;;;;;;5134023;27;20076;-70
2021/04/30 02:00:47;;;;;;;10.13;5.78;;;16.00;57.20;;;;;;5134049;27;20076;-70
2021/04/30 02:03:13;;;;;;;7.72;4.97;;;16.00;57.50;;;;;;5132556;27;20023;-70
2021/04/30 02:05:40;;;;;;;8.43;5.65;;;16.00;57.30;;;;;;5133778;27;20019;-70
2021/04/30 02:08:11;;;;;;;7.40;5.72;;;15.90;57.80;;;;;;5134438;27;20015;-70
2021/04/30 02:10:37;;;;;;;7.88;5.80;;;15.90;57.80;;;;;;5134266;27;20019;-70
2021/04/30 02:13:04;;;;;;;12.95;6.15;;;15.90;57.70;;;;;;5134624;27;20019;-70
2021/04/30 02:15:32;;;;;;;9.95;6.25;;;15.90;58.10;;;;;;5134287;27;20487;-70
2021/04/30 02:17:58;;;;;;;8.25;5.35;;;15.90;58.20;;;;;;5133003;27;20495;-70
2021/04/30 02:20:24;;;;;;;8.52;5.47;;;15.90;58.20;;;;;;5134567;27;20035;-70
2021/04/30 02:22:51;;;;;;;11.82;5.97;;;15.90;58.20;;;;;;5134480;27;20053;-70
2021/04/30 02:25:19;;;;;;;8.60;4.57;;;15.90;58.20;;;;;;5134194;27;20107;-69
2021/04/30 02:27:45;;;;;;;6.25;4.85;;;15.90;58.00;;;;;;5134296;27;20012;-70
2021/04/30 02:30:15;;;;;;;5.65;4.57;;;15.90;58.80;;;;;;5134340;27;20023;-70
2021/04/30 02:32:41;;;;;;;6.85;4.50;;;15.90;58.10;;;;;;5134354;27;20015;-70
2021/04/30 02:35:19;;;;;;;8.80;5.93;;;16.00;58.10;;;;;;5134227;27;20039;-70
2021/04/30 02:37:46;;;;;;;6.85;5.10;;;16.00;58.40;;;;;;5134262;27;20031;-70
2021/04/30 02:40:17;;;;;;;9.10;6.10;;;16.00;58.40;;;;;;5134232;27;20026;-70
2021/04/30 02:42:44;;;;;;;9.30;5.78;;;16.00;58.60;;;;;;5134182;27;20106;-70
2021/04/30 02:45:13;;;;;;;8.20;5.78;;;16.00;58.50;;;;;;5134050;27;20045;-70
2021/04/30 02:47:41;;;;;;;9.82;5.22;;;16.00;58.50;;;;;;5132348;27;20024;-69
2021/04/30 02:50:07;;;;;;;6.28;5.00;;;16.00;58.20;;;;;;5134404;27;20068;-70
2021/04/30 02:52:33;;;;;;;11.95;6.57;;;16.00;58.10;;;;;;5132587;27;20035;-70
2021/04/30 02:54:59;;;;;;;8.73;6.07;;;16.00;58.40;;;;;;5132798;28;20029;-70
2021/04/30 02:57:28;;;;;;;10.68;6.28;;;16.00;58.40;;;;;;5134025;27;20023;-70
2021/04/30 02:59:54;;;;;;;7.15;5.45;;;16.00;58.30;;;;;;5135194;27;20059;-69
2021/04/30 03:02:19;;;;;;;8.50;6.20;;;16.00;58.10;;;;;;5138305;27;20050;-69
2021/04/30 03:04:45;;;;;;;12.75;8.15;;;16.00;58.20;;;;;;5138195;27;20076;-69
2021/04/30 03:07:11;;;;;;;11.65;6.82;;;16.10;58.40;;;;;;5138239;27;20021;-69
2021/04/30 03:09:36;;;;;;;10.27;7.15;;;16.00;58.40;;;;;;5138107;27;20024;-69
2021/04/30 03:12:02;;;;;;;12.32;8.77;;;16.10;58.40;;;;;;5138203;27;20022;-69
2021/04/30 03:14:28;;;;;;;10.98;7.55;;;16.10;58.70;;;;;;5138076;27;20022;-69
2021/04/30 03:16:54;;;;;;;13.15;8.00;;;16.00;58.80;;;;;;5137676;27;20026;-69
2021/04/30 03:19:20;;;;;;;9.23;7.72;;;16.00;59.00;;;;;;5137801;27;20023;-69
2021/04/30 03:21:46;;;;;;;11.23;8.25;;;16.00;58.90;;;;;;5137924;27;20081;-69
2021/04/30 03:24:12;;;;;;;13.52;8.88;;;16.00;58.80;;;;;;5137862;27;20094;-69
2021/04/30 03:26:38;;;;;;;12.40;9.35;;;16.00;58.90;;;;;;5137637;27;20059;-70
2021/04/30 03:29:04;;;;;;;12.40;8.88;;;16.00;58.90;;;;;;5137795;27;20051;-69
2021/04/30 03:31:30;;;;;;;13.98;9.93;;;16.00;58.80;;;;;;5137686;27;20019;-69
2021/04/30 03:33:56;;;;;;;14.88;9.98;;;16.00;59.00;;;;;;5136435;27;20029;-69
2021/04/30 03:36:22;;;;;;;12.40;9.73;;;15.90;59.00;;;;;;5137684;27;20020;-69
2021/04/30 03:38:50;;;;;;;10.98;8.27;;;16.00;58.90;;;;;;5137625;27;20023;-69
2021/04/30 03:41:16;;;;;;;14.20;8.43;;;16.00;58.80;;;;;;5137171;27;20034;-69
2021/04/30 03:43:43;;;;;;;13.45;9.90;;;16.00;58.90;;;;;;5137545;27;20025;-69
2021/04/30 03:46:09;;;;;;;12.88;8.90;;;16.00;59.00;;;;;;5136905;27;20019;-69
2021/04/30 03:48:35;;;;;;;12.77;9.13;;;15.90;58.80;;;;;;5137379;27;20020;-69
2021/04/30 03:51:02;;;;;;;15.45;9.07;;;15.90;58.80;;;;;;5137342;27;20041;-69
2021/04/30 03:53:28;;;;;;;14.57;9.23;;;16.00;58.80;;;;;;5136864;27;20043;-69
2021/04/30 03:55:53;;;;;;;11.55;7.85;;;16.00;58.70;;;;;;5137257;27;20031;-69
2021/04/30 03:58:19;;;;;;;12.57;9.27;;;16.00;58.60;;;;;;5137097;27;20023;-69
2021/04/30 04:00:46;;;;;;;14.15;9.93;;;16.00;58.70;;;;;;5136756;27;20448;-69
2021/04/30 04:03:12;;;;;;;13.18;9.93;;;16.00;59.00;;;;;;5136961;27;20034;-69
2021/04/30 04:05:38;;;;;;;12.02;8.07;;;16.00;59.00;;;;;;5137030;27;20429;-69
2021/04/30 04:08:05;;;;;;;12.02;9.30;;;16.00;58.80;;;;;;5137022;27;20405;-70
2021/04/30 04:10:31;;;;;;;15.02;8.82;;;16.00;58.80;;;;;;5136959;27;20016;-69
2021/04/30 04:12:57;;;;;;;14.85;9.68;;;16.10;58.80;;;;;;5136034;27;20102;-69
2021/04/30 04:15:23;;;;;;;14.25;8.13;;;16.10;58.80;;;;;;5136822;27;20109;-69
2021/04/30 04:17:48;;;;;;;12.68;9.02;;;16.10;58.70;;;;;;5136823;27;20027;-69
2021/04/30 04:20:14;;;;;;;10.45;7.40;;;16.10;58.60;;;;;;5136813;27;20027;-69
2021/04/30 04:22:40;;;;;;;13.65;8.75;;;16.10;58.50;;;;;;5136618;27;20028;-69
2021/04/30 04:25:07;;;;;;;8.63;7.00;;;16.10;58.50;;;;;;5136364;27;20019;-69
2021/04/30 04:27:33;;;;;;;9.48;7.55;;;16.20;58.40;;;;;;5135237;27;20076;-69
2021/04/30 04:30:00;;;;;;;12.77;8.35;;;16.20;58.40;;;;;;5136470;27;20051;-70
2021/04/30 04:32:26;;;;;;;10.77;7.53;;;16.20;58.40;;;;;;5136285;27;20512;-69
2021/04/30 04:34:52;;;;;;;10.60;7.53;;;16.20;58.40;;;;;;5136247;27;20106;-69
2021/04/30 04:37:18;;;;;;;12.38;8.15;;;16.30;58.40;;;;;;5136493;27;20035;-69
2021/04/30 04:39:43;;;;;;;11.75;7.88;;;16.30;58.40;;;;;;5136379;27;20026;-69
2021/04/30 04:42:09;;;;;;;12.30;8.27;;;16.30;58.30;;;;;;5136265;27;20076;-69
2021/04/30 04:44:35;;;;;;;12.00;8.40;;;16.30;58.20;;;;;;5136212;27;20102;-69
2021/04/30 04:47:02;;;;;;;11.85;7.90;;;16.40;58.20;;;;;;5135818;27;20069;-70
2021/04/30 04:49:28;;;;;;;11.50;7.57;;;16.40;58.10;;;;;;5136070;27;20130;-69
2021/04/30 04:51:54;;;;;;;11.05;7.75;;;16.40;58.20;;;;;;5136044;27;20118;-69
2021/04/30 04:54:21;;;;;;;9.93;7.55;;;16.40;58.10;;;;;;5136127;27;20045;-69
2021/04/30 04:56:47;;;;;;;10.32;7.90;;;16.40;58.00;;;;;;5136065;27;20026;-69
2021/04/30 04:59:13;;;;;;;9.52;6.82;;;16.40;58.00;;;;;;5135904;27;20102;-69
2021/04/30 05:01:38;;;;;;;10.60;7.32;;;16.50;58.10;;;;;;5135943;27;20098;-69
2021/04/30 05:04:05;;;;;;;11.20;7.95;;;16.50;58.10;;;;;;5135862;27;20023;-69
2021/04/30 05:06:30;;;;;;;11.57;8.15;;;16.50;58.10;;;;;;5135705;27;20019;-69
2021/04/30 05:08:56;;;;;;;10.25;7.55;;;16.60;58.10;;;;;;5135812;27;20484;-69
2021/04/30 05:11:22;;;;;;;9.95;7.45;;;16.60;57.90;;;;;;5135707;27;20019;-69
2021/04/30 05:13:48;;;;;;;12.63;8.98;;;16.70;58.00;;;;;;5134408;27;20483;-69
2021/04/30 05:16:13;;;;;;;12.80;8.95;;;16.70;58.00;;;;;;5135298;27;20038;-69
2021/04/30 05:18:40;;;;;;;11.32;8.20;;;16.80;57.90;;;;;;5135564;27;20023;-69
2021/04/30 05:21:08;;;;;;;13.70;7.75;;;16.80;57.70;;;;;;5135519;27;20027;-69
2021/04/30 05:23:37;;;;;;;11.25;8.48;;;16.90;57.50;;;;;;5120883;27;20028;-69
2021/04/30 05:26:03;;;;;;;10.48;7.00;;;16.90;57.40;;;;;;5130566;27;20023;-69
2021/04/30 05:28:31;;;;;;;10.00;7.95;;;16.90;57.20;;;;;;5130747;27;20047;-69
2021/04/30 05:30:57;;;;;;;10.20;8.45;;;16.90;57.30;;;;;;5114838;27;20020;-71
2021/04/30 05:33:23;;;;;;;11.63;8.02;;;16.90;57.40;;;;;;5114833;28;20486;-70
2021/04/30 05:35:50;;;;;;;15.88;7.65;;;17.00;57.50;;;;;;5114394;28;20071;-70
2021/04/30 05:38:15;;;;;;;16.10;8.40;;;17.00;57.60;;;;;;5114506;28;20023;-69
2021/04/30 05:40:41;;;;;;;12.25;8.52;;;17.10;57.70;;;;;;5114323;28;20039;-69
2021/04/30 05:43:07;;;;;;;14.73;7.50;;;17.10;57.60;;;;;;5112968;28;20031;-69
2021/04/30 05:45:33;;;;;;;15.15;8.20;;;17.20;57.40;;;;;;5132863;27;20161;-69
2021/04/30 05:47:59;;;;;;;14.23;8.07;;;17.30;57.40;;;;;;5134896;27;20026;-70
2021/04/30 05:50:25;;;;;;;11.50;7.47;;;17.40;57.00;;;;;;5134858;27;20030;-69
2021/04/30 05:52:51;;;;;;;12.18;7.57;;;17.40;56.90;;;;;;5134632;27;20040;-70
2021/04/30 05:55:16;;;;;;;16.08;8.23;;;17.50;56.80;;;;;;5134740;27;20054;-69
2021/04/30 05:57:42;;;;;;;13.60;8.20;;;17.60;56.70;;;;;;5126351;27;20421;-69
2021/04/30 06:00:10;;;;;;;12.60;8.13;;;17.60;56.60;;;;;;5114037;28;20480;-69
2021/04/30 06:02:37;;;;;;;12.45;8.43;;;17.70;56.50;;;;;;5117629;27;20035;-69
2021/04/30 06:05:04;;;;;;;15.20;7.78;;;17.80;56.40;;;;;;5124200;27;20031;-69
2021/04/30 06:07:30;;;;;;;11.05;8.05;;;17.80;56.30;;;;;;5119467;27;20473;-69
2021/04/30 06:09:55;;;;;;;10.48;7.13;;;17.90;56.30;;;;;;5129400;27;20034;-69
2021/04/30 06:12:21;;;;;;;16.73;12.00;;;17.90;56.00;;;;;;5134382;27;20372;-69
2021/04/30 06:14:47;;;;;;;11.15;8.15;;;18.00;56.00;;;;;;5134502;27;20027;-69
2021/04/30 06:17:13;;;;;;;11.07;8.32;;;18.00;55.80;;;;;;5134154;27;20094;-69
2021/04/30 06:19:38;;;;;;;12.13;7.72;;;18.00;55.50;;;;;;5134408;27;20015;-69
2021/04/30 06:22:04;;;;;;;10.93;7.78;;;18.10;55.20;;;;;;5120564;27;20073;-69
2021/04/30 06:24:30;;;;;;;13.70;8.18;;;18.10;55.10;;;;;;5117488;27;20015;-69
2021/04/30 06:26:55;;;;;;;11.63;7.57;;;18.10;55.20;;;;;;5134341;27;20034;-70
2021/04/30 06:29:21;;;;;;;10.35;8.05;;;18.00;55.00;;;;;;5134234;27;20030;-70
2021/04/30 06:31:47;;;;;;;10.15;6.97;;;18.00;55.00;;;;;;5133010;27;20023;-70
2021/04/30 06:34:13;;;;;;;11.57;8.18;;;17.90;54.90;;;;;;5133684;27;20047;-70
2021/04/30 06:36:38;;;;;;;10.90;7.28;;;17.90;55.00;;;;;;5132878;27;20031;-70
2021/04/30 06:39:05;;;;;;;9.45;6.10;;;17.90;54.90;;;;;;5121073;27;20019;-70
2021/04/30 06:41:31;;;;;;;10.65;7.30;;;17.90;54.60;;;;;;5111789;28;20023;-70
2021/04/30 06:43:57;;;;;;;10.75;7.63;;;17.90;54.00;;;;;;5117288;27;20061;-71
2021/04/30 06:46:23;;;;;;;14.02;8.25;;;17.90;53.70;;;;;;5131701;27;20023;-70
2021/04/30 06:48:50;;;;;;;10.13;7.78;;;17.90;54.10;;;;;;5133803;27;20461;-70
2021/04/30 06:51:16;;;;;;;12.52;8.10;;;17.90;54.20;;;;;;5133509;27;20075;-71
2021/04/30 06:53:43;;;;;;;9.02;6.53;;;17.90;54.20;;;;;;5112309;27;20027;-70
2021/04/30 06:56:09;;;;;;;12.77;7.90;;;17.90;54.50;;;;;;5131099;27;20033;-70
2021/04/30 06:58:36;;;;;;;9.98;6.50;;;18.00;54.90;;;;;;5137037;27;20023;-70
2021/04/30 07:01:02;;;;;;;8.48;6.55;;;18.10;54.90;;;;;;5126507;27;20038;-70
2021/04/30 07:03:28;;;;;;;19.02;8.38;;;18.30;54.60;;;;;;5151417;27;20034;-70
2021/04/30 07:05:53;;;;;;;12.80;6.75;;;18.50;54.20;;;;;;5151878;27;20034;-70
2021/04/30 07:08:19;;;;;;;8.35;5.28;;;18.70;53.50;;;;;;5152356;27;20023;-70
2021/04/30 07:10:48;;;;;;;8.20;5.70;;;19.00;53.40;;;;;;5138011;27;20027;-70
2021/04/30 07:13:14;;;;;;;7.70;5.47;;;19.20;52.90;;;;;;5141306;27;20019;-71
2021/04/30 07:15:40;;;;;;;9.02;5.93;;;19.50;52.30;;;;;;5149810;27;20034;-70
2021/04/30 07:18:06;;;;;;;9.30;5.88;;;19.70;51.50;;;;;;5154289;27;20022;-76
2021/04/30 07:20:34;;;;;;;6.90;5.45;;;19.80;51.00;;;;;;5122440;27;20024;-76
2021/04/30 07:23:01;;;;;;;8.15;5.28;;;19.90;50.70;;;;;;5128684;28;20023;-77
2021/04/30 07:25:27;;;;;;;7.78;4.85;;;20.00;50.10;;;;;;5133189;27;20019;-76
2021/04/30 07:27:53;;;;;;;8.30;5.07;;;20.10;51.00;;;;;;5131498;27;20031;-76
2021/04/30 07:30:19;;;;;;;5.75;4.35;;;20.30;50.00;;;;;;5132892;27;20026;-74
2021/04/30 07:32:45;;;;;;;6.60;4.47;;;20.40;49.30;;;;;;5127187;28;20030;-74
2021/04/30 07:35:11;;;;;;;8.18;5.20;;;20.50;48.50;;;;;;5131966;27;20034;-74
2021/04/30 07:37:40;;;;;;;6.03;4.53;;;20.70;48.70;;;;;;5131712;27;20038;-74
2021/04/30 07:40:07;;;;;;;12.93;5.60;;;20.80;48.60;;;;;;5118602;27;20024;-74
2021/04/30 07:42:33;;;;;;;8.25;5.53;;;20.90;47.90;;;;;;5127482;28;20027;-74
2021/04/30 07:44:59;;;;;;;9.40;6.10;;;21.10;47.60;;;;;;5131699;28;20031;-74
2021/04/30 07:47:25;;;;;;;13.05;6.72;;;21.30;47.20;;;;;;5134804;27;20081;-74
2021/04/30 07:49:50;;;;;;;7.70;5.47;;;21.40;46.30;;;;;;5137517;27;20051;-74
2021/04/30 07:52:16;;;;;;;10.40;6.03;;;21.60;46.00;;;;;;5136811;27;20110;-74
2021/04/30 07:54:42;;;;;;;9.02;4.70;;;21.70;45.50;;;;;;5130068;27;20027;-74
2021/04/30 07:57:08;;;;;;;6.80;5.22;;;21.70;45.10;;;;;;5137044;27;20091;-74
2021/04/30 07:59:34;;;;;;;4.70;3.70;;;21.70;44.90;;;;;;5136205;27;20030;-74
2021/04/30 08:02:02;;;;;;;5.30;4.03;;;21.80;44.70;;;;;;5121235;27;20027;-74
2021/04/30 08:04:28;;;;;;;9.43;5.68;;;21.80;44.10;;;;;;5114898;28;20057;-74
2021/04/30 08:06:54;;;;;;;14.00;7.78;;;21.80;43.70;;;;;;5122108;27;20434;-74
2021/04/30 08:09:19;;;;;;;10.27;5.93;;;21.90;44.10;;;;;;5136827;27;20116;-74
2021/04/30 08:11:45;;;;;;;7.05;4.97;;;22.00;44.20;;;;;;5136886;27;20019;-74
2021/04/30 08:14:11;;;;;;;6.10;4.85;;;22.00;43.90;;;;;;5136932;27;20460;-74
2021/04/30 08:16:37;;;;;;;5.80;4.15;;;22.10;43.60;;;;;;5130070;27;20038;-74
2021/04/30 08:19:04;;;;;;;8.93;4.20;;;22.10;42.80;;;;;;5124659;27;20027;-74
2021/04/30 08:21:30;;;;;;;7.68;5.22;;;22.10;42.60;;;;;;5131948;27;20497;-74
2021/04/30 08:23:56;;;;;;;9.15;5.32;;;22.10;42.50;;;;;;5131938;27;20031;-74
2021/04/30 08:26:25;;;;;;;6.32;4.60;;;22.20;42.20;;;;;;5116063;28;20469;-74
2021/04/30 08:28:55;;;;;;;6.53;4.47;;;22.20;42.70;;;;;;5116290;28;20026;-74
2021/04/30 08:31:22;;;;;;;8.93;4.93;;;22.30;42.50;;;;;;5130205;27;20388;-74
2021/04/30 08:33:49;;;;;;;6.28;4.38;;;22.40;42.10;;;;;;5115959;28;20495;-74
2021/04/30 08:36:16;;;;;;;8.30;4.88;;;22.40;42.20;;;;;;5115994;28;20031;-74
2021/04/30 08:38:42;;;;;;;5.38;3.88;;;22.40;42.20;;;;;;5116247;27;20028;-74
2021/04/30 08:41:08;;;;;;;6.47;3.83;;;22.40;41.80;;;;;;5115801;28;20106;-74
2021/04/30 08:43:37;;;;;;;5.05;3.78;;;22.40;41.70;;;;;;5115691;28;20099;-71
2021/04/30 08:46:04;;;;;;;6.55;3.65;;;22.40;41.20;;;;;;5134750;27;20098;-71
2021/04/30 08:48:32;;;;;;;5.72;3.60;;;22.40;41.50;;;;;;5136184;27;20053;-72
2021/04/30 08:50:58;;;;;;;10.38;4.50;;;22.40;41.40;;;;;;5125798;27;20503;-65
2021/04/30 08:53:24;;;;;;;5.07;4.00;;;22.40;41.40;;;;;;5135314;27;20043;-68
2021/04/30 08:55:51;;;;;;;5.47;3.80;;;22.40;41.10;;;;;;5135371;27;20118;-72
2021/04/30 08:58:25;;;;;;;5.57;3.85;;;22.40;41.60;;;;;;5135165;27;20027;-69
2021/04/30 09:00:52;;;;;;;;;;;22.40;40.80;;;;;;5130562;27;20103;-68
2021/04/30 09:03:18;;;;;;;6.00;3.35;;;22.40;41.90;;;;;;5122122;27;19911;-70
2021/04/30 09:05:49;;;;;;;4.90;3.78;;;22.40;40.60;;;;;;5130824;27;20077;-73
2021/04/30 09:08:17;;;;;;;4.30;3.33;;;22.30;40.90;;;;;;5120364;27;20011;-69
2021/04/30 09:10:48;;;;;;;8.40;3.97;;;22.40;40.70;;;;;;5141726;27;20035;-75
2021/04/30 09:13:16;;;;;;;5.57;3.70;;;22.50;40.40;;;;;;5134478;27;20024;-76
2021/04/30 09:15:44;;;;;;;6.35;3.85;;;22.60;40.60;;;;;;5133822;27;20026;-74
2021/04/30 09:18:32;;;;;;;4.28;3.53;;;22.60;39.70;;;;;;5131375;27;20030;-74
2021/04/30 09:21:07;;;;;;;10.35;4.07;;;22.60;39.80;;;;;;5115037;28;20028;-83
2021/04/30 09:23:40;;;;;;;7.15;4.40;;;22.60;39.70;;;;;;5115254;28;20138;-75
2021/04/30 09:26:27;;;;;;;6.22;3.58;;;22.60;39.50;;;;;;5118468;27;20052;-68
2021/04/30 09:29:10;;;;;;;6.50;4.40;;;22.60;39.70;;;;;;5135234;27;20030;-65
2021/04/30 09:31:41;;;;;;;6.75;3.65;;;22.60;40.00;;;;;;5127502;27;20031;-65
2021/04/30 09:34:26;;;;;;;5.72;3.38;;;22.50;40.10;;;;;;5126958;27;20019;-66
2021/04/30 09:37:01;;;;;;;5.40;4.30;;;22.50;40.30;;;;;;5135185;27;20468;-73
2021/04/30 09:39:28;;;;;;;6.50;4.15;;;22.50;40.20;;;;;;5133864;27;20035;-65
2021/04/30 09:42:11;;;;;;;7.53;4.60;;;22.60;39.90;;;;;;5135144;27;20034;-66
2021/04/30 09:44:42;;;;;;;7.68;4.90;;;22.60;39.80;;;;;;5135527;27;20094;-70
2021/04/30 09:47:25;;;;;;;8.85;5.60;;;22.70;39.90;;;;;;5123508;27;20036;-69
2021/04/30 09:50:04;;;;;;;14.33;8.80;;;22.70;40.00;;;;;;5113011;28;20034;-71
2021/04/30 09:52:30;;;;;;;14.48;8.70;;;22.80;39.30;;;;;;5114211;28;20277;-66
2021/04/30 09:55:01;;;;;;;13.95;10.18;;;22.90;39.50;;;;;;5128773;27;20049;-73
2021/04/30 09:57:28;;;;;;;16.38;12.70;;;23.00;39.80;;;;;;5127182;27;20020;-81
2021/04/30 10:00:10;;;;;;;20.70;15.88;;;23.10;39.40;;;;;;5114505;28;20019;-72
2021/04/30 10:02:37;;;;;;;26.55;21.67;;;23.30;38.60;;;;;;5122163;27;20023;-68
2021/04/30 10:05:11;;;;;;;14.98;12.38;;;23.40;38.90;;;;;;5134525;27;20380;-70
2021/04/30 10:07:38;;;;;;;10.32;8.40;;;23.60;38.20;;;;;;5134603;27;20093;-68
2021/04/30 10:10:16;;;;;;;14.52;8.25;;;23.70;38.50;;;;;;5133859;27;20348;-68
2021/04/30 10:12:46;;;;;;;11.90;8.45;;;23.80;38.40;;;;;;5134582;27;20015;-70
2021/04/30 10:15:19;;;;;;;12.82;8.38;;;23.90;38.10;;;;;;5134033;27;20279;-73
2021/04/30 10:17:45;;;;;;;11.77;7.30;;;24.00;37.80;;;;;;5128308;27;20058;-70
2021/04/30 10:20:12;;;;;;;9.73;6.32;;;24.00;37.70;;;;;;5117248;27;20107;-65
2021/04/30 10:22:41;;;;;;;14.38;6.75;;;24.10;37.20;;;;;;5132928;27;20103;-69
2021/04/30 10:25:10;;;;;;;12.38;6.85;;;24.00;36.00;;;;;;5133950;27;20102;-73
2021/04/30 10:27:44;;;;;;;13.25;6.22;;;23.90;36.70;;;;;;5134227;27;20023;-72
2021/04/30 10:30:18;;;;;;;6.68;5.20;;;23.90;36.90;;;;;;5134385;27;20016;-74
2021/04/30 10:32:52;;;;;;;8.43;5.78;;;23.80;36.90;;;;;;5132636;27;20023;-66
2021/04/30 10:35:25;;;;;;;7.85;5.82;;;23.80;37.00;;;;;;5131809;27;20023;-71
2021/04/30 10:37:55;;;;;;;9.35;6.22;;;23.80;36.80;;;;;;5117406;27;20020;-71
2021/04/30 10:40:21;;;;;;;7.15;5.32;;;23.70;36.40;;;;;;5127439;27;20019;-69
2021/04/30 10:42:47;;;;;;;7.82;5.53;;;23.70;37.40;;;;;;5132955;27;20027;-77
2021/04/30 10:45:17;;;;;;;9.10;5.95;;;23.70;36.90;;;;;;5113977;28;20032;-67
2021/04/30 10:48:06;;;;;;;7.30;4.90;;;23.60;36.40;;;;;;5112983;28;20020;-68
2021/04/30 10:50:33;;;;;;;8.73;4.85;;;23.60;36.90;;;;;;5112091;28;20479;-72
2021/04/30 10:53:30;;;;;;;10.93;5.30;;;23.60;35.80;;;;;;5122555;27;20039;-74
2021/04/30 10:55:56;;;;;;;6.20;4.43;;;23.50;36.00;;;;;;5125755;27;20051;-66
2021/04/30 10:58:39;;;;;;;9.93;5.00;;;23.40;36.30;;;;;;5113184;28;20031;-70
2021/04/30 11:01:24;;;;;;;7.20;5.20;;;23.20;36.60;;;;;;5113581;28;20024;-67
2021/04/30 11:04:08;;;;;;;7.28;4.32;;;23.10;36.10;;;;;;5113111;28;20073;-78
2021/04/30 11:06:46;;;;;;;7.25;4.82;;;23.00;36.40;;;;;;5129003;28;20055;-66
2021/04/30 11:09:41;;;;;;;5.55;4.28;;;23.00;36.30;;;;;;5133604;27;20023;-67
2021/04/30 11:12:21;;;;;;;6.70;4.32;;;22.90;36.80;;;;;;5112577;28;20038;-65
2021/04/30 11:15:02;;;;;;;7.03;3.92;;;22.80;36.60;;;;;;5123722;28;20046;-68
2021/04/30 11:17:58;;;;;;;6.82;4.38;;;22.80;37.20;;;;;;5112197;28;20028;-73
2021/04/30 11:20:28;;;;;;;4.75;3.83;;;22.80;37.70;;;;;;5069410;28;20035;-68
2021/04/30 11:23:21;;;;;;;6.80;4.20;;;22.80;37.50;;;;;;5080909;28;20055;-70
2021/04/30 11:25:58;;;;;;;6.78;3.80;;;22.80;37.20;;;;;;5094617;28;20028;-69
2021/04/30 11:28:29;;;;;;;11.32;4.55;;;22.80;36.60;;;;;;5077110;28;20043;-69
2021/04/30 11:31:05;;;;;;;5.97;4.18;;;22.70;36.80;;;;;;5094382;28;20036;-71
2021/04/30 11:33:32;;;;;;;7.60;4.65;;;22.70;37.20;;;;;;5094228;28;20103;-66
2021/04/30 11:35:59;;;;;;;10.00;4.35;;;22.70;36.50;;;;;;5076990;28;20028;-67
2021/04/30 11:38:48;;;;;;;9.10;3.50;;;22.70;36.20;;;;;;5094287;28;20064;-67
2021/04/30 11:41:15;;;;;;;5.43;4.32;;;22.70;36.50;;;;;;5094306;28;20418;-66
2021/04/30 11:43:47;;;;;;;5.47;4.50;;;22.70;36.00;;;;;;5093504;28;20040;-70
2021/04/30 11:46:13;;;;;;;10.20;4.80;;;22.70;36.10;;;;;;5100619;28;20041;-69
2021/04/30 11:48:43;;;;;;;7.95;3.83;;;22.70;36.10;;;;;;5096354;28;20032;-67
2021/04/30 11:51:11;;;;;;;4.45;3.70;;;22.70;36.20;;;;;;5093599;28;20032;-67
2021/04/30 11:53:42;;;;;;;4.82;4.07;;;22.70;36.20;;;;;;5093918;28;20055;-68
2021/04/30 11:56:09;;;;;;;6.47;3.55;;;22.70;35.70;;;;;;5099422;28;20036;-68
2021/04/30 11:58:39;;;;;;;7.32;5.15;;;22.80;36.40;;;;;;5116675;27;20389;-68
2021/04/30 12:01:07;;;;;;;6.93;4.60;;;22.80;35.60;;;;;;5116594;27;20563;-67
2021/04/30 12:03:46;;;;;;;9.48;4.90;;;22.80;36.10;;;;;;5127674;27;20400;-67
2021/04/30 12:06:18;;;;;;;8.57;4.40;;;22.80;36.10;;;;;;5116899;27;20024;-67
2021/04/30 12:08:46;;;;;;;8.40;5.20;;;22.90;36.30;;;;;;5116277;27;20072;-67
2021/04/30 12:11:31;;;;;;;12.43;4.80;;;23.00;36.10;;;;;;5116248;28;20022;-67
2021/04/30 12:14:02;;;;;;;6.95;4.70;;;23.10;36.10;;;;;;5132653;27;20058;-67
2021/04/30 12:16:27;;;;;;;7.13;5.28;;;23.10;36.00;;;;;;5136577;27;20080;-67
2021/04/30 12:18:57;;;;;;;7.15;5.43;;;23.20;35.50;;;;;;5135223;27;20023;-67
2021/04/30 12:21:32;;;;;;;6.22;4.65;;;23.30;35.90;;;;;;5136566;27;20045;-67
2021/04/30 12:23:59;;;;;;;7.80;5.45;;;23.30;35.60;;;;;;5136516;27;20027;-67
2021/04/30 12:26:33;;;;;;;4.47;3.50;;;23.50;35.60;;;;;;5136520;27;20023;-67
2021/04/30 12:29:00;;;;;;;9.40;4.32;;;23.50;35.10;;;;;;5136850;27;20044;-66
2021/04/30 12:31:27;;;;;;;4.57;4.18;;;23.60;34.50;;;;;;5136288;27;20022;-67
2021/04/30 12:33:55;;;;;;;6.32;4.45;;;23.50;33.80;;;;;;5135517;27;20032;-67
2021/04/30 12:36:31;;;;;;;6.88;4.85;;;23.60;33.90;;;;;;5136422;27;20026;-67
2021/04/30 12:38:59;;;;;;;6.57;4.05;;;23.60;34.30;;;;;;5136676;27;20437;-67
2021/04/30 12:41:30;;;;;;;5.80;3.85;;;23.60;34.00;;;;;;5136336;27;20030;-67
2021/04/30 12:44:01;;;;;;;4.53;3.28;;;23.70;33.60;;;;;;5131262;27;20016;-66
2021/04/30 12:46:30;;;;;;;5.47;3.42;;;23.70;33.10;;;;;;5127016;27;20087;-67
2021/04/30 12:49:16;;;;;;;6.13;3.20;;;23.70;32.60;;;;;;5135946;27;20495;-67